This is the latest recevied weather packets stored in our database for station/object W6UA-13. If no packets are shown the sender has not sent any weather packets the latest 10 day(s).
| Time | Temp. | Humidity | Pressure | Rain* | Wind** | Luminosity | Snow |
|---|---|---|---|---|---|---|---|
| 1777870183 | 11.67° C | 79% | 1015.4 hPa | 0 mm | - | 0 W/m² | - |
| 1777869283 | 11.67° C | 77% | 1015.4 hPa | 0 mm | - | 0 W/m² | - |
| 1777868383 | 12.22° C | 76% | 1015.1 hPa | 0 mm | - | 0 W/m² | - |
| 1777867483 | 12.78° C | 75% | 1014.9 hPa | 0 mm | - | 0 W/m² | - |
| 1777866583 | 13.33° C | 75% | 1014.8 hPa | 0 mm | - | 0 W/m² | - |
| 1777844984 | 17.78° C | 56% | 1014.3 hPa | 0 mm | - | 817 W/m² | - |
| 1777844084 | 18.33° C | 56% | 1014.3 hPa | 0 mm | - | 840 W/m² | - |
| 1777842284 | 18.33° C | 58% | 1014.3 hPa | 0 mm | - | 874 W/m² | - |
| 1777839584 | 16.67° C | 63% | 1014.7 hPa | 0 mm | - | 900 W/m² | - |
| 1777836884 | 17.78° C | 56% | 1014.8 hPa | 0 mm | - | 902 W/m² | - |
| 1777835084 | 18.33° C | 54% | 1014.8 hPa | 0 mm | - | 895 W/m² | - |
| 1777833284 | 16.67° C | 55% | 1014.9 hPa | 0 mm | - | 527 W/m² | - |
| 1777829684 | 15.56° C | 64% | 1014.9 hPa | 0 mm | - | 295 W/m² | - |
| 1777802685 | 12.78° C | 81% | 1012.2 hPa | 0 mm | - | 0 W/m² | - |
| 1777800885 | 12.78° C | 80% | 1012.2 hPa | 0 mm | - | 0 W/m² | - |
| 1777799985 | 12.78° C | 80% | 1012.3 hPa | 0 mm | - | 0 W/m² | - |
| 1777799085 | 12.78° C | 81% | 1012.3 hPa | 0 mm | - | 0 W/m² | - |
| 1777798185 | 12.78° C | 81% | 1012.5 hPa | 0 mm | - | 0 W/m² | - |
| 1777797285 | 12.78° C | 81% | 1012.8 hPa | 0 mm | - | 0 W/m² | - |
| 1777796385 | 12.78° C | 80% | 1012.9 hPa | 0 mm | - | 0 W/m² | - |
| 1777795485 | 12.78° C | 80% | 1013.1 hPa | 0 mm | - | 0 W/m² | - |
| 1777793685 | 12.78° C | 80% | 1013.1 hPa | 0 mm | - | 0 W/m² | - |
| 1777792785 | 12.78° C | 80% | 1012.8 hPa | 0 mm | - | 0 W/m² | - |
| 1777791885 | 13.33° C | 80% | 1012.7 hPa | 0 mm | - | 0 W/m² | - |
| 1777790985 | 13.33° C | 80% | 1012.7 hPa | 0 mm | - | 0 W/m² | - |
* Rain latest hour (hover to see other rain measurements)
** Current wind speed in m/s (hover to see current wind gust speed)